sensor_id;sensor_type;location;lat;lon;timestamp;pressure;altitude;pressure_sealevel;temperature;humidity
37710;BME280;60223;34.854;-92.408;2023-04-22T00:00:51;100267.70;;;26.72;27.01
37710;BME280;60223;34.854;-92.408;2023-04-22T00:03:14;100268.76;;;26.43;27.07
37710;BME280;60223;34.854;-92.408;2023-04-22T00:05:39;100271.09;;;26.64;26.82
37710;BME280;60223;34.854;-92.408;2023-04-22T00:08:07;100269.26;;;26.60;26.92
37710;BME280;60223;34.854;-92.408;2023-04-22T00:10:32;100272.42;;;26.83;26.88
37710;BME280;60223;34.854;-92.408;2023-04-22T00:12:57;100269.01;;;26.26;27.22
37710;BME280;60223;34.854;-92.408;2023-04-22T00:15:26;100274.17;;;26.39;27.49
37710;BME280;60223;34.854;-92.408;2023-04-22T00:17:49;100276.34;;;27.06;26.77
37710;BME280;60223;34.854;-92.408;2023-04-22T00:20:15;100276.24;;;27.19;26.41
37710;BME280;60223;34.854;-92.408;2023-04-22T00:22:40;100268.90;;;26.27;26.93
37710;BME280;60223;34.854;-92.408;2023-04-22T00:25:06;100264.48;;;26.82;26.42
37710;BME280;60223;34.854;-92.408;2023-04-22T00:27:31;100264.83;;;27.94;24.49
37710;BME280;60223;34.854;-92.408;2023-04-22T00:29:58;100264.21;;;27.37;25.61
37710;BME280;60223;34.854;-92.408;2023-04-22T00:32:22;100264.94;;;26.97;25.53
37710;BME280;60223;34.854;-92.408;2023-04-22T00:34:57;100270.64;;;26.22;26.08
37710;BME280;60223;34.854;-92.408;2023-04-22T00:37:14;100271.86;;;26.54;25.49
37710;BME280;60223;34.854;-92.408;2023-04-22T00:39:40;100279.53;;;26.96;25.52
37710;BME280;60223;34.854;-92.408;2023-04-22T00:42:06;100281.33;;;26.59;25.70
37710;BME280;60223;34.854;-92.408;2023-04-22T00:44:32;100281.20;;;26.98;25.51
37710;BME280;60223;34.854;-92.408;2023-04-22T00:46:54;100282.17;;;27.10;25.66
37710;BME280;60223;34.854;-92.408;2023-04-22T00:49:23;100284.84;;;27.03;25.83
37710;BME280;60223;34.854;-92.408;2023-04-22T00:51:48;100287.18;;;27.11;26.17
37710;BME280;60223;34.854;-92.408;2023-04-22T00:54:14;100289.16;;;26.98;25.91
37710;BME280;60223;34.854;-92.408;2023-04-22T00:56:38;100299.19;;;27.64;25.98
37710;BME280;60223;34.854;-92.408;2023-04-22T00:59:05;100299.23;;;27.29;25.82
37710;BME280;60223;34.854;-92.408;2023-04-22T01:01:30;100305.16;;;27.14;25.94
37710;BME280;60223;34.854;-92.408;2023-04-22T01:03:57;100308.44;;;27.26;25.91
37710;BME280;60223;34.854;-92.408;2023-04-22T01:06:22;100312.15;;;27.07;25.97
37710;BME280;60223;34.854;-92.408;2023-04-22T01:08:48;100311.19;;;27.15;25.61
37710;BME280;60223;34.854;-92.408;2023-04-22T01:11:13;100312.69;;;27.05;25.86
37710;BME280;60223;34.854;-92.408;2023-04-22T01:13:39;100315.28;;;27.19;25.78
37710;BME280;60223;34.854;-92.408;2023-04-22T01:16:03;100321.75;;;27.81;25.78
37710;BME280;60223;34.854;-92.408;2023-04-22T01:18:30;100323.88;;;27.01;25.98
37710;BME280;60223;34.854;-92.408;2023-04-22T01:20:54;100324.89;;;27.01;25.99
37710;BME280;60223;34.854;-92.408;2023-04-22T01:23:22;100333.43;;;27.22;25.66
37710;BME280;60223;34.854;-92.408;2023-04-22T01:25:47;100340.04;;;27.05;25.77
37710;BME280;60223;34.854;-92.408;2023-04-22T01:28:11;100343.45;;;27.51;25.84
37710;BME280;60223;34.854;-92.408;2023-04-22T01:30:37;100347.07;;;27.04;26.06
37710;BME280;60223;34.854;-92.408;2023-04-22T01:33:04;100352.03;;;27.10;25.94
37710;BME280;60223;34.854;-92.408;2023-04-22T01:35:29;100360.17;;;26.95;25.89
37710;BME280;60223;34.854;-92.408;2023-04-22T01:37:55;100363.51;;;27.09;25.97
37710;BME280;60223;34.854;-92.408;2023-04-22T01:40:20;100365.98;;;26.69;26.45
37710;BME280;60223;34.854;-92.408;2023-04-22T01:42:45;100360.42;;;27.01;26.12
37710;BME280;60223;34.854;-92.408;2023-04-22T01:45:13;100367.52;;;26.74;26.55
37710;BME280;60223;34.854;-92.408;2023-04-22T01:47:34;100369.01;;;26.55;26.31
37710;BME280;60223;34.854;-92.408;2023-04-22T01:50:03;100374.48;;;26.80;26.34
37710;BME280;60223;34.854;-92.408;2023-04-22T01:52:29;100381.62;;;26.80;26.47
37710;BME280;60223;34.854;-92.408;2023-04-22T01:54:54;100383.15;;;27.01;26.13
37710;BME280;60223;34.854;-92.408;2023-04-22T01:57:20;100380.84;;;26.64;26.21
37710;BME280;60223;34.854;-92.408;2023-04-22T01:59:49;100382.13;;;26.17;26.43
37710;BME280;60223;34.854;-92.408;2023-04-22T02:02:11;100391.87;;;26.70;26.67
37710;BME280;60223;34.854;-92.408;2023-04-22T02:04:35;100396.84;;;26.61;26.89
37710;BME280;60223;34.854;-92.408;2023-04-22T02:07:02;100397.86;;;26.47;26.67
37710;BME280;60223;34.854;-92.408;2023-04-22T02:09:28;100400.85;;;26.52;26.78
37710;BME280;60223;34.854;-92.408;2023-04-22T02:11:53;100403.35;;;26.30;26.70
37710;BME280;60223;34.854;-92.408;2023-04-22T02:14:18;100406.24;;;26.56;26.83
37710;BME280;60223;34.854;-92.408;2023-04-22T02:16:45;100411.32;;;26.49;26.80
37710;BME280;60223;34.854;-92.408;2023-04-22T02:19:11;100416.24;;;26.26;26.72
37710;BME280;60223;34.854;-92.408;2023-04-22T02:21:37;100422.92;;;26.77;26.42
37710;BME280;60223;34.854;-92.408;2023-04-22T02:24:02;100429.74;;;26.68;26.71
37710;BME280;60223;34.854;-92.408;2023-04-22T02:26:26;100435.55;;;26.71;26.79
37710;BME280;60223;34.854;-92.408;2023-04-22T02:28:53;100442.44;;;26.13;26.76
37710;BME280;60223;34.854;-92.408;2023-04-22T02:31:19;100453.23;;;26.54;27.06
37710;BME280;60223;34.854;-92.408;2023-04-22T02:33:44;100459.37;;;26.53;26.62
37710;BME280;60223;34.854;-92.408;2023-04-22T02:36:10;100459.58;;;26.30;27.11
37710;BME280;60223;34.854;-92.408;2023-04-22T02:38:36;100456.88;;;26.28;26.72
37710;BME280;60223;34.854;-92.408;2023-04-22T02:41:01;100454.67;;;26.81;26.61
37710;BME280;60223;34.854;-92.408;2023-04-22T02:43:27;100450.60;;;26.71;26.76
37710;BME280;60223;34.854;-92.408;2023-04-22T02:45:51;100446.55;;;26.38;26.90
37710;BME280;60223;34.854;-92.408;2023-04-22T02:48:16;100446.03;;;26.74;26.66
37710;BME280;60223;34.854;-92.408;2023-04-22T02:50:44;100453.75;;;26.55;26.56
37710;BME280;60223;34.854;-92.408;2023-04-22T02:53:08;100454.50;;;26.56;27.00
37710;BME280;60223;34.854;-92.408;2023-04-22T02:55:35;100455.17;;;26.66;26.72
37710;BME280;60223;34.854;-92.408;2023-04-22T02:58:00;100459.25;;;26.38;26.52
37710;BME280;60223;34.854;-92.408;2023-04-22T03:00:25;100460.97;;;26.74;26.51
37710;BME280;60223;34.854;-92.408;2023-04-22T03:02:49;100465.08;;;26.75;26.11
37710;BME280;60223;34.854;-92.408;2023-04-22T03:05:22;100470.06;;;26.53;26.44
37710;BME280;60223;34.854;-92.408;2023-04-22T03:07:43;100465.53;;;26.73;26.29
37710;BME280;60223;34.854;-92.408;2023-04-22T03:10:10;100468.75;;;26.30;26.95
37710;BME280;60223;34.854;-92.408;2023-04-22T03:12:32;100471.57;;;26.22;26.95
37710;BME280;60223;34.854;-92.408;2023-04-22T03:15:00;100473.30;;;26.19;27.11
37710;BME280;60223;34.854;-92.408;2023-04-22T03:17:26;100474.75;;;26.20;26.97
37710;BME280;60223;34.854;-92.408;2023-04-22T03:19:48;100471.77;;;26.40;26.83
37710;BME280;60223;34.854;-92.408;2023-04-22T03:22:17;100475.43;;;26.14;27.49
37710;BME280;60223;34.854;-92.408;2023-04-22T03:24:43;100480.99;;;25.88;27.50
37710;BME280;60223;34.854;-92.408;2023-04-22T03:27:07;100484.93;;;26.26;27.33
37710;BME280;60223;34.854;-92.408;2023-04-22T03:29:31;100487.59;;;26.16;27.20
37710;BME280;60223;34.854;-92.408;2023-04-22T03:31:59;100493.53;;;26.09;27.27
37710;BME280;60223;34.854;-92.408;2023-04-22T03:34:25;100497.14;;;26.30;27.31
37710;BME280;60223;34.854;-92.408;2023-04-22T03:36:50;100500.47;;;26.09;27.25
37710;BME280;60223;34.854;-92.408;2023-04-22T03:39:20;100503.52;;;26.18;26.98
37710;BME280;60223;34.854;-92.408;2023-04-22T03:41:41;100505.93;;;26.29;27.05
37710;BME280;60223;34.854;-92.408;2023-04-22T03:44:06;100507.80;;;26.69;26.74
37710;BME280;60223;34.854;-92.408;2023-04-22T03:46:30;100508.40;;;26.95;26.43
37710;BME280;60223;34.854;-92.408;2023-04-22T03:48:58;100509.57;;;27.12;25.97
37710;BME280;60223;34.854;-92.408;2023-04-22T03:51:24;100514.51;;;27.01;26.37
37710;BME280;60223;34.854;-92.408;2023-04-22T03:53:50;100517.51;;;26.77;26.47
37710;BME280;60223;34.854;-92.408;2023-04-22T03:56:15;100519.59;;;26.16;26.71
37710;BME280;60223;34.854;-92.408;2023-04-22T03:58:41;100522.17;;;26.42;26.23
37710;BME280;60223;34.854;-92.408;2023-04-22T04:01:08;100528.30;;;26.46;26.42
37710;BME280;60223;34.854;-92.408;2023-04-22T04:03:32;100529.43;;;26.33;26.65
37710;BME280;60223;34.854;-92.408;2023-04-22T04:05:58;100529.20;;;26.44;26.65
37710;BME280;60223;34.854;-92.408;2023-04-22T04:08:24;100523.07;;;26.56;26.62
37710;BME280;60223;34.854;-92.408;2023-04-22T04:10:49;100523.24;;;26.80;26.39
37710;BME280;60223;34.854;-92.408;2023-04-22T04:13:14;100522.09;;;26.86;26.01
37710;BME280;60223;34.854;-92.408;2023-04-22T04:15:39;100525.81;;;26.92;26.23
37710;BME280;60223;34.854;-92.408;2023-04-22T04:18:05;100525.59;;;26.97;26.21
37710;BME280;60223;34.854;-92.408;2023-04-22T04:20:32;100528.81;;;27.02;26.14
37710;BME280;60223;34.854;-92.408;2023-04-22T04:22:57;100527.38;;;26.95;26.17
37710;BME280;60223;34.854;-92.408;2023-04-22T04:25:23;100531.03;;;27.05;26.07
37710;BME280;60223;34.854;-92.408;2023-04-22T04:27:46;100530.52;;;26.67;26.37
37710;BME280;60223;34.854;-92.408;2023-04-22T04:30:13;100534.00;;;26.36;26.45
37710;BME280;60223;34.854;-92.408;2023-04-22T04:32:40;100534.45;;;26.62;26.42
37710;BME280;60223;34.854;-92.408;2023-04-22T04:35:07;100533.14;;;26.64;26.41
37710;BME280;60223;34.854;-92.408;2023-04-22T04:37:31;100535.78;;;26.66;26.40
37710;BME280;60223;34.854;-92.408;2023-04-22T04:39:56;100537.97;;;26.65;26.45
37710;BME280;60223;34.854;-92.408;2023-04-22T04:42:23;100540.09;;;26.94;26.41
37710;BME280;60223;34.854;-92.408;2023-04-22T04:44:48;100539.28;;;26.52;26.35
37710;BME280;60223;34.854;-92.408;2023-04-22T04:47:13;100543.28;;;26.61;26.47
37710;BME280;60223;34.854;-92.408;2023-04-22T04:49:39;100543.85;;;26.83;26.22
37710;BME280;60223;34.854;-92.408;2023-04-22T04:52:05;100546.98;;;26.79;26.05
37710;BME280;60223;34.854;-92.408;2023-04-22T04:54:30;100552.40;;;26.72;26.34
37710;BME280;60223;34.854;-92.408;2023-04-22T04:56:57;100558.24;;;26.18;26.63
37710;BME280;60223;34.854;-92.408;2023-04-22T04:59:24;100558.26;;;26.47;26.61
37710;BME280;60223;34.854;-92.408;2023-04-22T05:01:47;100557.73;;;26.32;26.74
37710;BME280;60223;34.854;-92.408;2023-04-22T05:04:10;100561.41;;;26.28;26.78
37710;BME280;60223;34.854;-92.408;2023-04-22T05:06:39;100560.45;;;26.21;26.85
37710;BME280;60223;34.854;-92.408;2023-04-22T05:09:04;100556.76;;;26.17;26.89
37710;BME280;60223;34.854;-92.408;2023-04-22T05:11:30;100553.26;;;26.38;26.67
37710;BME280;60223;34.854;-92.408;2023-04-22T05:13:55;100552.06;;;26.31;26.74
37710;BME280;60223;34.854;-92.408;2023-04-22T05:16:20;100551.13;;;26.18;26.86
37710;BME280;60223;34.854;-92.408;2023-04-22T05:18:47;100550.37;;;26.52;26.77
37710;BME280;60223;34.854;-92.408;2023-04-22T05:21:12;100548.06;;;26.19;26.83
37710;BME280;60223;34.854;-92.408;2023-04-22T05:23:37;100549.08;;;26.12;26.89
37710;BME280;60223;34.854;-92.408;2023-04-22T05:26:09;100548.29;;;25.90;26.86
37710;BME280;60223;34.854;-92.408;2023-04-22T05:28:29;100548.25;;;25.90;26.85
37710;BME280;60223;34.854;-92.408;2023-04-22T05:30:55;100548.79;;;25.93;26.81
37710;BME280;60223;34.854;-92.408;2023-04-22T05:33:18;100549.09;;;26.31;26.89
37710;BME280;60223;34.854;-92.408;2023-04-22T05:35:45;100549.97;;;26.09;27.10
37710;BME280;60223;34.854;-92.408;2023-04-22T05:38:12;100545.81;;;25.85;27.09
37710;BME280;60223;34.854;-92.408;2023-04-22T05:40:38;100549.25;;;25.95;26.98
37710;BME280;60223;34.854;-92.408;2023-04-22T05:43:03;100549.53;;;25.84;27.09
37710;BME280;60223;34.854;-92.408;2023-04-22T05:45:29;100547.00;;;25.56;27.35
37710;BME280;60223;34.854;-92.408;2023-04-22T05:47:54;100546.09;;;25.99;27.17
37710;BME280;60223;34.854;-92.408;2023-04-22T05:50:20;100545.30;;;25.59;27.30
37710;BME280;60223;34.854;-92.408;2023-04-22T05:52:43;100545.70;;;25.69;27.19
37710;BME280;60223;34.854;-92.408;2023-04-22T05:55:11;100543.60;;;25.48;27.38
37710;BME280;60223;34.854;-92.408;2023-04-22T05:57:34;100541.32;;;25.49;27.37
37710;BME280;60223;34.854;-92.408;2023-04-22T06:00:03;100538.38;;;25.48;27.36
37710;BME280;60223;34.854;-92.408;2023-04-22T06:02:28;100536.84;;;25.91;27.17
37710;BME280;60223;34.854;-92.408;2023-04-22T06:04:53;100532.09;;;25.89;27.18
37710;BME280;60223;34.854;-92.408;2023-04-22T06:07:17;100530.51;;;25.84;27.21
37710;BME280;60223;34.854;-92.408;2023-04-22T06:09:45;100523.43;;;25.85;27.19
37710;BME280;60223;34.854;-92.408;2023-04-22T06:12:11;100524.65;;;25.95;27.09
37710;BME280;60223;34.854;-92.408;2023-04-22T06:14:36;100517.86;;;25.85;27.19
37710;BME280;60223;34.854;-92.408;2023-04-22T06:17:03;100517.32;;;25.56;27.20
37710;BME280;60223;34.854;-92.408;2023-04-22T06:19:26;100518.41;;;25.90;27.11
37710;BME280;60223;34.854;-92.408;2023-04-22T06:21:53;100516.36;;;25.86;27.14
37710;BME280;60223;34.854;-92.408;2023-04-22T06:24:19;100511.30;;;25.62;27.35
37710;BME280;60223;34.854;-92.408;2023-04-22T06:26:50;100506.63;;;25.64;27.32
37710;BME280;60223;34.854;-92.408;2023-04-22T06:29:19;100499.50;;;25.60;27.37
37710;BME280;60223;34.854;-92.408;2023-04-22T06:31:34;100500.44;;;25.29;27.44
37710;BME280;60223;34.854;-92.408;2023-04-22T06:34:01;100495.84;;;25.33;27.36
37710;BME280;60223;34.854;-92.408;2023-04-22T06:36:27;100494.08;;;25.50;27.43
37710;BME280;60223;34.854;-92.408;2023-04-22T06:38:53;100488.66;;;25.44;27.44
37710;BME280;60223;34.854;-92.408;2023-04-22T06:41:16;100484.26;;;25.52;27.36
37710;BME280;60223;34.854;-92.408;2023-04-22T06:43:44;100479.35;;;25.50;27.37
37710;BME280;60223;34.854;-92.408;2023-04-22T06:46:10;100476.72;;;25.26;27.33
37710;BME280;60223;34.854;-92.408;2023-04-22T06:48:41;100471.34;;;25.45;27.36
37710;BME280;60223;34.854;-92.408;2023-04-22T06:51:03;100473.68;;;25.39;27.41
37710;BME280;60223;34.854;-92.408;2023-04-22T06:53:27;100481.00;;;25.72;27.30
37710;BME280;60223;34.854;-92.408;2023-04-22T06:55:52;100483.59;;;25.33;27.21
37710;BME280;60223;34.854;-92.408;2023-04-22T06:58:18;100483.31;;;25.74;27.02
37710;BME280;60223;34.854;-92.408;2023-04-22T07:00:43;100485.56;;;25.67;27.07
37710;BME280;60223;34.854;-92.408;2023-04-22T07:03:08;100487.12;;;25.57;27.15
37710;BME280;60223;34.854;-92.408;2023-04-22T07:05:35;100483.67;;;25.80;27.17
37710;BME280;60223;34.854;-92.408;2023-04-22T07:08:01;100478.31;;;25.35;27.12
37710;BME280;60223;34.854;-92.408;2023-04-22T07:10:27;100470.77;;;25.76;27.18
37710;BME280;60223;34.854;-92.408;2023-04-22T07:12:52;100462.45;;;25.66;27.03
37710;BME280;60223;34.854;-92.408;2023-04-22T07:15:18;100458.30;;;25.57;27.09
37710;BME280;60223;34.854;-92.408;2023-04-22T07:17:44;100448.24;;;25.69;26.97
37710;BME280;60223;34.854;-92.408;2023-04-22T07:20:10;100448.90;;;25.75;27.13
37710;BME280;60223;34.854;-92.408;2023-04-22T07:22:35;100454.96;;;25.16;27.22
37710;BME280;60223;34.854;-92.408;2023-04-22T07:25:00;100454.19;;;25.50;27.11
37710;BME280;60223;34.854;-92.408;2023-04-22T07:27:34;100459.12;;;25.70;27.10
37710;BME280;60223;34.854;-92.408;2023-04-22T07:29:51;100461.14;;;25.48;27.04
37710;BME280;60223;34.854;-92.408;2023-04-22T07:32:17;100465.50;;;25.28;27.01
37710;BME280;60223;34.854;-92.408;2023-04-22T07:34:43;100464.04;;;25.67;26.85
37710;BME280;60223;34.854;-92.408;2023-04-22T07:37:09;100463.67;;;25.87;26.85
37710;BME280;60223;34.854;-92.408;2023-04-22T07:39:35;100465.30;;;25.52;26.94
37710;BME280;60223;34.854;-92.408;2023-04-22T07:41:59;100464.86;;;25.47;26.94
37710;BME280;60223;34.854;-92.408;2023-04-22T07:44:23;100464.31;;;25.60;26.81
37710;BME280;60223;34.854;-92.408;2023-04-22T07:46:49;100463.78;;;25.54;26.84
37710;BME280;60223;34.854;-92.408;2023-04-22T07:49:18;100461.51;;;25.46;26.90
37710;BME280;60223;34.854;-92.408;2023-04-22T07:51:42;100462.03;;;25.74;26.85
37710;BME280;60223;34.854;-92.408;2023-04-22T07:54:08;100460.61;;;25.48;26.84
37710;BME280;60223;34.854;-92.408;2023-04-22T07:56:33;100459.11;;;25.55;26.75
37710;BME280;60223;34.854;-92.408;2023-04-22T07:58:59;100462.44;;;25.41;26.86
37710;BME280;60223;34.854;-92.408;2023-04-22T08:01:25;100462.35;;;25.55;26.72
37710;BME280;60223;34.854;-92.408;2023-04-22T08:03:51;100462.80;;;25.39;26.85
37710;BME280;60223;34.854;-92.408;2023-04-22T08:06:17;100461.37;;;25.60;26.64
37710;BME280;60223;34.854;-92.408;2023-04-22T08:08:42;100459.06;;;25.34;26.85
37710;BME280;60223;34.854;-92.408;2023-04-22T08:11:08;100459.46;;;25.49;26.73
37710;BME280;60223;34.854;-92.408;2023-04-22T08:13:31;100464.47;;;25.56;26.88
37710;BME280;60223;34.854;-92.408;2023-04-22T08:15:59;100469.99;;;25.27;26.90
37710;BME280;60223;34.854;-92.408;2023-04-22T08:18:25;100476.21;;;25.21;26.73
37710;BME280;60223;34.854;-92.408;2023-04-22T08:20:51;100482.06;;;25.70;26.65
37710;BME280;60223;34.854;-92.408;2023-04-22T08:23:14;100484.59;;;25.79;26.56
37710;BME280;60223;34.854;-92.408;2023-04-22T08:25:40;100486.31;;;25.82;26.49
37710;BME280;60223;34.854;-92.408;2023-04-22T08:28:07;100488.44;;;25.30;26.55
37710;BME280;60223;34.854;-92.408;2023-04-22T08:30:32;100489.54;;;25.70;26.60
37710;BME280;60223;34.854;-92.408;2023-04-22T08:32:58;100491.57;;;25.20;26.57
37710;BME280;60223;34.854;-92.408;2023-04-22T08:35:23;100491.18;;;25.31;26.47
37710;BME280;60223;34.854;-92.408;2023-04-22T08:37:49;100492.55;;;25.48;26.49
37710;BME280;60223;34.854;-92.408;2023-04-22T08:40:16;100492.44;;;25.40;26.55
37710;BME280;60223;34.854;-92.408;2023-04-22T08:42:43;100490.24;;;25.34;26.62
37710;BME280;60223;34.854;-92.408;2023-04-22T08:45:09;100490.68;;;25.33;26.62
37710;BME280;60223;34.854;-92.408;2023-04-22T08:47:33;100489.35;;;25.43;26.49
37710;BME280;60223;34.854;-92.408;2023-04-22T08:50:00;100488.52;;;25.18;26.45
37710;BME280;60223;34.854;-92.408;2023-04-22T08:52:29;100484.17;;;25.36;26.51
37710;BME280;60223;34.854;-92.408;2023-04-22T08:54:49;100487.44;;;25.66;26.44
37710;BME280;60223;34.854;-92.408;2023-04-22T08:57:15;100490.52;;;25.12;26.45
37710;BME280;60223;34.854;-92.408;2023-04-22T08:59:41;100494.50;;;25.60;26.45
37710;BME280;60223;34.854;-92.408;2023-04-22T09:02:07;100496.18;;;25.33;26.45
37710;BME280;60223;34.854;-92.408;2023-04-22T09:04:32;100494.90;;;25.40;26.40
37710;BME280;60223;34.854;-92.408;2023-04-22T09:06:59;100488.85;;;25.23;26.51
37710;BME280;60223;34.854;-92.408;2023-04-22T09:09:23;100483.58;;;25.22;26.50
37710;BME280;60223;34.854;-92.408;2023-04-22T09:11:49;100480.74;;;25.30;26.66
37710;BME280;60223;34.854;-92.408;2023-04-22T09:14:15;100479.89;;;25.41;26.51
37710;BME280;60223;34.854;-92.408;2023-04-22T09:16:45;100482.91;;;25.56;26.38
37710;BME280;60223;34.854;-92.408;2023-04-22T09:19:05;100480.90;;;25.17;26.50
37710;BME280;60223;34.854;-92.408;2023-04-22T09:21:31;100480.89;;;25.53;26.33
37710;BME280;60223;34.854;-92.408;2023-04-22T09:23:58;100483.16;;;25.16;26.46
37710;BME280;60223;34.854;-92.408;2023-04-22T09:26:20;100486.33;;;25.25;26.33
37710;BME280;60223;34.854;-92.408;2023-04-22T09:28:53;100489.83;;;25.23;26.36
37710;BME280;60223;34.854;-92.408;2023-04-22T09:31:14;100488.73;;;25.28;26.28
37710;BME280;60223;34.854;-92.408;2023-04-22T09:33:45;100485.73;;;25.28;26.26
37710;BME280;60223;34.854;-92.408;2023-04-22T09:36:10;100479.52;;;25.34;26.38
37710;BME280;60223;34.854;-92.408;2023-04-22T09:38:33;100477.54;;;25.26;26.44
37710;BME280;60223;34.854;-92.408;2023-04-22T09:40:57;100476.75;;;25.35;26.32
37710;BME280;60223;34.854;-92.408;2023-04-22T09:43:22;100478.37;;;25.37;26.25
37710;BME280;60223;34.854;-92.408;2023-04-22T09:45:48;100479.56;;;25.36;26.25
37710;BME280;60223;34.854;-92.408;2023-04-22T09:48:14;100480.73;;;25.28;26.35
37710;BME280;60223;34.854;-92.408;2023-04-22T09:50:42;100480.55;;;25.46;26.15
37710;BME280;60223;34.854;-92.408;2023-04-22T09:53:05;100481.65;;;25.01;26.29
37710;BME280;60223;34.854;-92.408;2023-04-22T09:55:36;100481.00;;;25.24;26.03
37710;BME280;60223;34.854;-92.408;2023-04-22T09:58:02;100470.27;;;25.33;26.17
37710;BME280;60223;34.854;-92.408;2023-04-22T10:00:23;100478.06;;;25.15;26.34
37710;BME280;60223;34.854;-92.408;2023-04-22T10:02:48;100476.50;;;25.25;26.22
37710;BME280;60223;34.854;-92.408;2023-04-22T10:05:13;100481.48;;;25.11;26.37
37710;BME280;60223;34.854;-92.408;2023-04-22T10:07:39;100474.80;;;24.93;26.27
37710;BME280;60223;34.854;-92.408;2023-04-22T10:10:06;100471.41;;;25.17;26.25
37710;BME280;60223;34.854;-92.408;2023-04-22T10:12:30;100468.88;;;24.86;26.31
37710;BME280;60223;34.854;-92.408;2023-04-22T10:14:56;100463.87;;;25.09;26.30
37710;BME280;60223;34.854;-92.408;2023-04-22T10:17:22;100465.20;;;25.13;26.21
37710;BME280;60223;34.854;-92.408;2023-04-22T10:19:49;100463.76;;;25.23;26.11
37710;BME280;60223;34.854;-92.408;2023-04-22T10:22:13;100471.02;;;25.01;26.30
37710;BME280;60223;34.854;-92.408;2023-04-22T10:24:39;100469.24;;;25.00;26.28
37710;BME280;60223;34.854;-92.408;2023-04-22T10:27:04;100464.45;;;25.05;26.21
37710;BME280;60223;34.854;-92.408;2023-04-22T10:29:36;100464.48;;;25.13;26.09
37710;BME280;60223;34.854;-92.408;2023-04-22T10:32:02;100464.50;;;25.25;25.96
37710;BME280;60223;34.854;-92.408;2023-04-22T10:34:21;100467.22;;;25.01;26.16
37710;BME280;60223;34.854;-92.408;2023-04-22T10:36:58;100465.77;;;25.10;26.04
37710;BME280;60223;34.854;-92.408;2023-04-22T10:39:17;100461.15;;;24.90;26.01
37710;BME280;60223;34.854;-92.408;2023-04-22T10:41:38;100464.21;;;25.32;25.63
37710;BME280;60223;34.854;-92.408;2023-04-22T10:44:04;100467.03;;;25.25;25.87
37710;BME280;60223;34.854;-92.408;2023-04-22T10:48:55;100484.27;;;24.71;26.12
37710;BME280;60223;34.854;-92.408;2023-04-22T10:53:45;100486.78;;;24.97;26.05
37710;BME280;60223;34.854;-92.408;2023-04-22T10:56:17;100485.70;;;24.86;26.15
37710;BME280;60223;34.854;-92.408;2023-04-22T10:58:38;100479.06;;;24.86;26.15
37710;BME280;60223;34.854;-92.408;2023-04-22T11:03:30;100487.28;;;24.80;26.14
37710;BME280;60223;34.854;-92.408;2023-04-22T11:08:24;100490.51;;;24.79;26.12
37710;BME280;60223;34.854;-92.408;2023-04-22T11:10:48;100491.42;;;24.89;26.01
37710;BME280;60223;34.854;-92.408;2023-04-22T11:13:13;100489.40;;;24.90;26.00
37710;BME280;60223;34.854;-92.408;2023-04-22T11:15:40;100493.54;;;24.99;26.10
37710;BME280;60223;34.854;-92.408;2023-04-22T11:18:07;100495.70;;;24.64;25.96
37710;BME280;60223;34.854;-92.408;2023-04-22T11:20:26;100496.27;;;24.81;26.03
37710;BME280;60223;34.854;-92.408;2023-04-22T11:22:56;100500.30;;;24.75;26.05
37710;BME280;60223;34.854;-92.408;2023-04-22T11:25:21;100500.73;;;24.97;25.65
37710;BME280;60223;34.854;-92.408;2023-04-22T11:27:51;100510.04;;;24.82;25.94
37710;BME280;60223;34.854;-92.408;2023-04-22T11:30:21;100515.58;;;25.22;25.77
37710;BME280;60223;34.854;-92.408;2023-04-22T11:32:39;100516.88;;;24.93;25.83
37710;BME280;60223;34.854;-92.408;2023-04-22T11:35:07;100521.83;;;24.60;25.86
37710;BME280;60223;34.854;-92.408;2023-04-22T11:37:29;100525.23;;;25.13;25.63
37710;BME280;60223;34.854;-92.408;2023-04-22T11:39:58;100527.61;;;25.30;25.63
37710;BME280;60223;34.854;-92.408;2023-04-22T11:42:23;100532.91;;;24.98;25.69
37710;BME280;60223;34.854;-92.408;2023-04-22T11:44:47;100540.03;;;25.15;25.76
37710;BME280;60223;34.854;-92.408;2023-04-22T11:47:11;100549.83;;;24.76;25.89
37710;BME280;60223;34.854;-92.408;2023-04-22T11:49:37;100555.44;;;24.64;26.04
37710;BME280;60223;34.854;-92.408;2023-04-22T11:52:04;100556.44;;;24.68;25.96
37710;BME280;60223;34.854;-92.408;2023-04-22T11:54:34;100554.99;;;24.57;26.01
37710;BME280;60223;34.854;-92.408;2023-04-22T11:56:55;100551.64;;;24.80;26.00
37710;BME280;60223;34.854;-92.408;2023-04-22T11:59:23;100553.06;;;24.77;26.05
37710;BME280;60223;34.854;-92.408;2023-04-22T12:01:50;100560.71;;;24.62;25.93
37710;BME280;60223;34.854;-92.408;2023-04-22T12:04:12;100562.32;;;24.59;25.99
37710;BME280;60223;34.854;-92.408;2023-04-22T12:06:42;100560.76;;;24.52;25.98
37710;BME280;60223;34.854;-92.408;2023-04-22T12:08:59;100558.20;;;24.45;26.08
37710;BME280;60223;34.854;-92.408;2023-04-22T12:11:30;100559.93;;;24.69;25.81
37710;BME280;60223;34.854;-92.408;2023-04-22T12:13:54;100558.40;;;24.15;26.07
37710;BME280;60223;34.854;-92.408;2023-04-22T12:16:17;100564.48;;;24.65;25.89
37710;BME280;60223;34.854;-92.408;2023-04-22T12:18:51;100562.76;;;24.94;25.59
37710;BME280;60223;34.854;-92.408;2023-04-22T12:21:11;100564.66;;;24.96;25.56
37710;BME280;60223;34.854;-92.408;2023-04-22T12:23:42;100570.60;;;25.16;25.33
37710;BME280;60223;34.854;-92.408;2023-04-22T12:26:01;100572.52;;;24.99;25.49
37710;BME280;60223;34.854;-92.408;2023-04-22T12:28:28;100573.55;;;25.24;25.35
37710;BME280;60223;34.854;-92.408;2023-04-22T12:30:53;100579.91;;;24.82;25.77